Terminal Aerodrome Forecast
Issued by NWS

Home | Current Version | Previous Version | Text Only | Print | Product List | Glossary On
Versions: 1 2 3 4 5 6 7 8 9 10 11 12 13 14
000
FTUS45 KGJT 232338
TAFDRO
TAF
KDRO 232338Z 2400/2424 07009KT 5SM -RA BR SCT040 BKN050 OVC070
     FM240100 17007KT P6SM VCSH FEW050 SCT080
     FM240200 16006KT P6SM FEW050 SCT080
     FM241300 08004KT P6SM FEW070 FEW250
     FM241700 19007KT P6SM FEW080 FEW200
     FM241900 22008KT P6SM FEW110 SCT200=

USA.gov is the U.S. government's official web portal to all federal, state and local government web resources and services.